sensor_id;sensor_type;location;lat;lon;timestamp;P1;durP1;ratioP1;P2;durP2;ratioP2
2522;SDS011;1272;53.332;9.860;2022-08-21T00:01:42;3.00;;;2.77;;
2522;SDS011;1272;53.332;9.860;2022-08-21T00:04:08;6.53;;;3.00;;
2522;SDS011;1272;53.332;9.860;2022-08-21T00:06:35;4.83;;;3.23;;
2522;SDS011;1272;53.332;9.860;2022-08-21T00:09:02;5.03;;;3.60;;
2522;SDS011;1272;53.332;9.860;2022-08-21T00:11:30;6.27;;;2.87;;
2522;SDS011;1272;53.332;9.860;2022-08-21T00:13:56;4.07;;;2.60;;
2522;SDS011;1272;53.332;9.860;2022-08-21T00:16:21;3.37;;;3.07;;
2522;SDS011;1272;53.332;9.860;2022-08-21T00:18:48;2.63;;;2.43;;
2522;SDS011;1272;53.332;9.860;2022-08-21T00:21:14;2.70;;;2.37;;
2522;SDS011;1272;53.332;9.860;2022-08-21T00:23:40;4.67;;;2.50;;
2522;SDS011;1272;53.332;9.860;2022-08-21T00:26:06;3.77;;;3.53;;
2522;SDS011;1272;53.332;9.860;2022-08-21T00:28:33;2.60;;;2.40;;
2522;SDS011;1272;53.332;9.860;2022-08-21T00:30:59;3.20;;;3.00;;
2522;SDS011;1272;53.332;9.860;2022-08-21T00:33:25;2.57;;;2.37;;
2522;SDS011;1272;53.332;9.860;2022-08-21T00:35:51;3.90;;;2.93;;
2522;SDS011;1272;53.332;9.860;2022-08-21T00:38:17;3.00;;;2.70;;
2522;SDS011;1272;53.332;9.860;2022-08-21T00:40:53;2.77;;;2.57;;
2522;SDS011;1272;53.332;9.860;2022-08-21T00:43:23;3.93;;;2.60;;
2522;SDS011;1272;53.332;9.860;2022-08-21T00:45:53;3.63;;;2.77;;
2522;SDS011;1272;53.332;9.860;2022-08-21T00:48:20;3.00;;;2.80;;
2522;SDS011;1272;53.332;9.860;2022-08-21T00:50:52;4.07;;;3.43;;
2522;SDS011;1272;53.332;9.860;2022-08-21T00:53:23;3.67;;;3.37;;
2522;SDS011;1272;53.332;9.860;2022-08-21T00:55:50;3.57;;;3.37;;
2522;SDS011;1272;53.332;9.860;2022-08-21T00:58:18;3.93;;;3.00;;
2522;SDS011;1272;53.332;9.860;2022-08-21T01:00:45;6.67;;;3.60;;
2522;SDS011;1272;53.332;9.860;2022-08-21T01:03:14;4.67;;;3.50;;
2522;SDS011;1272;53.332;9.860;2022-08-21T01:05:42;5.00;;;3.07;;
2522;SDS011;1272;53.332;9.860;2022-08-21T01:08:09;5.00;;;3.70;;
2522;SDS011;1272;53.332;9.860;2022-08-21T01:10:37;4.80;;;3.00;;
2522;SDS011;1272;53.332;9.860;2022-08-21T01:13:04;8.37;;;3.10;;
2522;SDS011;1272;53.332;9.860;2022-08-21T01:15:33;3.80;;;3.47;;
2522;SDS011;1272;53.332;9.860;2022-08-21T01:18:03;4.40;;;2.70;;
2522;SDS011;1272;53.332;9.860;2022-08-21T01:20:30;4.93;;;2.80;;
2522;SDS011;1272;53.332;9.860;2022-08-21T01:22:56;4.23;;;2.97;;
2522;SDS011;1272;53.332;9.860;2022-08-21T01:25:22;2.90;;;2.80;;
2522;SDS011;1272;53.332;9.860;2022-08-21T01:27:48;3.13;;;2.93;;
2522;SDS011;1272;53.332;9.860;2022-08-21T01:30:16;2.53;;;2.40;;
2522;SDS011;1272;53.332;9.860;2022-08-21T01:32:44;6.43;;;2.90;;
2522;SDS011;1272;53.332;9.860;2022-08-21T01:35:12;4.80;;;3.30;;
2522;SDS011;1272;53.332;9.860;2022-08-21T01:37:40;7.47;;;2.80;;
2522;SDS011;1272;53.332;9.860;2022-08-21T01:40:07;3.13;;;2.80;;
2522;SDS011;1272;53.332;9.860;2022-08-21T01:42:34;3.10;;;2.80;;
2522;SDS011;1272;53.332;9.860;2022-08-21T01:45:00;2.43;;;2.33;;
2522;SDS011;1272;53.332;9.860;2022-08-21T01:47:26;5.60;;;2.73;;
2522;SDS011;1272;53.332;9.860;2022-08-21T01:49:52;3.00;;;2.80;;
2522;SDS011;1272;53.332;9.860;2022-08-21T01:52:18;3.00;;;2.73;;
2522;SDS011;1272;53.332;9.860;2022-08-21T01:54:44;3.23;;;2.77;;
2522;SDS011;1272;53.332;9.860;2022-08-21T01:57:10;3.70;;;2.70;;
2522;SDS011;1272;53.332;9.860;2022-08-21T01:59:38;3.00;;;2.40;;
2522;SDS011;1272;53.332;9.860;2022-08-21T02:02:04;3.20;;;3.00;;
2522;SDS011;1272;53.332;9.860;2022-08-21T02:04:30;5.37;;;3.77;;
2522;SDS011;1272;53.332;9.860;2022-08-21T02:06:56;2.90;;;2.80;;
2522;SDS011;1272;53.332;9.860;2022-08-21T02:09:22;5.03;;;3.03;;
2522;SDS011;1272;53.332;9.860;2022-08-21T02:11:48;3.10;;;2.90;;
2522;SDS011;1272;53.332;9.860;2022-08-21T02:14:14;2.87;;;2.57;;
2522;SDS011;1272;53.332;9.860;2022-08-21T02:16:41;3.40;;;3.10;;
2522;SDS011;1272;53.332;9.860;2022-08-21T02:19:08;3.00;;;2.80;;
2522;SDS011;1272;53.332;9.860;2022-08-21T02:21:34;2.60;;;2.40;;
2522;SDS011;1272;53.332;9.860;2022-08-21T02:24:00;3.50;;;3.20;;
2522;SDS011;1272;53.332;9.860;2022-08-21T02:26:26;2.87;;;2.67;;
2522;SDS011;1272;53.332;9.860;2022-08-21T02:28:52;3.60;;;3.10;;
2522;SDS011;1272;53.332;9.860;2022-08-21T02:31:18;4.80;;;3.03;;
2522;SDS011;1272;53.332;9.860;2022-08-21T02:33:44;3.50;;;3.20;;
2522;SDS011;1272;53.332;9.860;2022-08-21T02:36:10;2.80;;;2.63;;
2522;SDS011;1272;53.332;9.860;2022-08-21T02:38:37;3.03;;;2.83;;
2522;SDS011;1272;53.332;9.860;2022-08-21T02:41:05;2.83;;;2.63;;
2522;SDS011;1272;53.332;9.860;2022-08-21T02:43:34;3.00;;;2.90;;
2522;SDS011;1272;53.332;9.860;2022-08-21T02:46:00;3.30;;;3.00;;
2522;SDS011;1272;53.332;9.860;2022-08-21T02:48:29;3.50;;;3.20;;
2522;SDS011;1272;53.332;9.860;2022-08-21T02:51:02;2.70;;;2.50;;
2522;SDS011;1272;53.332;9.860;2022-08-21T02:53:34;2.80;;;2.67;;
2522;SDS011;1272;53.332;9.860;2022-08-21T02:56:01;2.83;;;2.73;;
2522;SDS011;1272;53.332;9.860;2022-08-21T02:58:30;2.60;;;2.50;;
2522;SDS011;1272;53.332;9.860;2022-08-21T03:00:58;2.97;;;2.77;;
2522;SDS011;1272;53.332;9.860;2022-08-21T03:03:24;4.40;;;2.70;;
2522;SDS011;1272;53.332;9.860;2022-08-21T03:05:51;2.80;;;2.53;;
2522;SDS011;1272;53.332;9.860;2022-08-21T03:08:18;3.20;;;2.90;;
2522;SDS011;1272;53.332;9.860;2022-08-21T03:10:46;3.93;;;2.53;;
2522;SDS011;1272;53.332;9.860;2022-08-21T03:13:15;2.80;;;2.70;;
2522;SDS011;1272;53.332;9.860;2022-08-21T03:15:41;2.73;;;2.63;;
2522;SDS011;1272;53.332;9.860;2022-08-21T03:18:08;4.23;;;2.20;;
2522;SDS011;1272;53.332;9.860;2022-08-21T03:20:35;3.80;;;2.40;;
2522;SDS011;1272;53.332;9.860;2022-08-21T03:23:02;2.50;;;2.30;;
2522;SDS011;1272;53.332;9.860;2022-08-21T03:25:29;3.27;;;2.97;;
2522;SDS011;1272;53.332;9.860;2022-08-21T03:27:59;2.40;;;2.30;;
2522;SDS011;1272;53.332;9.860;2022-08-21T03:30:26;3.23;;;3.03;;
2522;SDS011;1272;53.332;9.860;2022-08-21T03:32:51;2.80;;;2.60;;
2522;SDS011;1272;53.332;9.860;2022-08-21T03:35:17;2.60;;;2.40;;
2522;SDS011;1272;53.332;9.860;2022-08-21T03:37:44;2.73;;;2.53;;
2522;SDS011;1272;53.332;9.860;2022-08-21T03:40:11;3.03;;;2.80;;
2522;SDS011;1272;53.332;9.860;2022-08-21T03:42:40;3.07;;;2.83;;
2522;SDS011;1272;53.332;9.860;2022-08-21T03:45:06;3.03;;;2.83;;
2522;SDS011;1272;53.332;9.860;2022-08-21T03:47:32;6.67;;;2.80;;
2522;SDS011;1272;53.332;9.860;2022-08-21T03:49:58;3.80;;;2.50;;
2522;SDS011;1272;53.332;9.860;2022-08-21T03:52:24;3.33;;;3.03;;
2522;SDS011;1272;53.332;9.860;2022-08-21T03:54:50;2.77;;;2.57;;
2522;SDS011;1272;53.332;9.860;2022-08-21T03:57:16;3.10;;;2.90;;
2522;SDS011;1272;53.332;9.860;2022-08-21T03:59:42;3.60;;;2.83;;
2522;SDS011;1272;53.332;9.860;2022-08-21T04:02:08;2.57;;;2.37;;
2522;SDS011;1272;53.332;9.860;2022-08-21T04:04:35;2.90;;;2.70;;
2522;SDS011;1272;53.332;9.860;2022-08-21T04:07:00;3.33;;;2.80;;
2522;SDS011;1272;53.332;9.860;2022-08-21T04:09:27;2.47;;;2.37;;
2522;SDS011;1272;53.332;9.860;2022-08-21T04:11:53;2.80;;;2.60;;
2522;SDS011;1272;53.332;9.860;2022-08-21T04:14:18;2.50;;;2.40;;
2522;SDS011;1272;53.332;9.860;2022-08-21T04:16:45;4.63;;;2.87;;
2522;SDS011;1272;53.332;9.860;2022-08-21T04:19:11;3.53;;;2.50;;
2522;SDS011;1272;53.332;9.860;2022-08-21T04:21:38;2.40;;;2.23;;
2522;SDS011;1272;53.332;9.860;2022-08-21T04:24:05;2.97;;;2.83;;
2522;SDS011;1272;53.332;9.860;2022-08-21T04:26:32;3.10;;;2.80;;
2522;SDS011;1272;53.332;9.860;2022-08-21T04:29:02;2.90;;;2.70;;
2522;SDS011;1272;53.332;9.860;2022-08-21T04:31:31;2.80;;;2.60;;
2522;SDS011;1272;53.332;9.860;2022-08-21T04:33:57;2.40;;;2.30;;
2522;SDS011;1272;53.332;9.860;2022-08-21T04:36:24;3.03;;;2.83;;
2522;SDS011;1272;53.332;9.860;2022-08-21T04:38:49;4.07;;;3.80;;
2522;SDS011;1272;53.332;9.860;2022-08-21T04:41:15;3.40;;;2.67;;
2522;SDS011;1272;53.332;9.860;2022-08-21T04:43:41;2.90;;;2.67;;
2522;SDS011;1272;53.332;9.860;2022-08-21T04:46:07;3.00;;;2.63;;
2522;SDS011;1272;53.332;9.860;2022-08-21T04:48:33;4.97;;;2.60;;
2522;SDS011;1272;53.332;9.860;2022-08-21T04:51:06;2.50;;;2.33;;
2522;SDS011;1272;53.332;9.860;2022-08-21T04:53:45;2.60;;;2.50;;
2522;SDS011;1272;53.332;9.860;2022-08-21T04:56:37;3.03;;;2.73;;
2522;SDS011;1272;53.332;9.860;2022-08-21T04:59:16;3.63;;;2.50;;
2522;SDS011;1272;53.332;9.860;2022-08-21T05:01:46;3.17;;;2.70;;
2522;SDS011;1272;53.332;9.860;2022-08-21T05:04:12;3.17;;;2.40;;
2522;SDS011;1272;53.332;9.860;2022-08-21T05:06:42;2.57;;;2.47;;
2522;SDS011;1272;53.332;9.860;2022-08-21T05:09:09;2.73;;;2.57;;
2522;SDS011;1272;53.332;9.860;2022-08-21T05:11:39;2.60;;;2.40;;
2522;SDS011;1272;53.332;9.860;2022-08-21T05:14:05;3.30;;;3.00;;
2522;SDS011;1272;53.332;9.860;2022-08-21T05:16:31;3.67;;;3.13;;
2522;SDS011;1272;53.332;9.860;2022-08-21T05:18:57;3.43;;;3.13;;
2522;SDS011;1272;53.332;9.860;2022-08-21T05:21:23;3.87;;;2.87;;
2522;SDS011;1272;53.332;9.860;2022-08-21T05:23:49;3.23;;;3.03;;
2522;SDS011;1272;53.332;9.860;2022-08-21T05:26:15;4.07;;;3.60;;
2522;SDS011;1272;53.332;9.860;2022-08-21T05:28:40;3.93;;;3.50;;
2522;SDS011;1272;53.332;9.860;2022-08-21T05:31:06;3.50;;;3.10;;
2522;SDS011;1272;53.332;9.860;2022-08-21T05:33:32;2.77;;;2.67;;
2522;SDS011;1272;53.332;9.860;2022-08-21T05:35:57;2.80;;;2.70;;
2522;SDS011;1272;53.332;9.860;2022-08-21T05:38:23;2.80;;;2.60;;
2522;SDS011;1272;53.332;9.860;2022-08-21T05:40:52;3.80;;;3.47;;
2522;SDS011;1272;53.332;9.860;2022-08-21T05:43:18;3.33;;;3.00;;
2522;SDS011;1272;53.332;9.860;2022-08-21T05:45:43;3.00;;;2.80;;
2522;SDS011;1272;53.332;9.860;2022-08-21T05:48:11;3.30;;;3.00;;
2522;SDS011;1272;53.332;9.860;2022-08-21T05:50:40;3.00;;;2.80;;
2522;SDS011;1272;53.332;9.860;2022-08-21T05:53:07;3.27;;;2.97;;
2522;SDS011;1272;53.332;9.860;2022-08-21T05:55:33;3.27;;;3.00;;
2522;SDS011;1272;53.332;9.860;2022-08-21T05:58:00;3.10;;;2.80;;
2522;SDS011;1272;53.332;9.860;2022-08-21T06:00:25;3.53;;;3.30;;
2522;SDS011;1272;53.332;9.860;2022-08-21T06:02:51;2.87;;;2.67;;
2522;SDS011;1272;53.332;9.860;2022-08-21T06:05:17;3.10;;;2.87;;
2522;SDS011;1272;53.332;9.860;2022-08-21T06:07:43;3.07;;;2.77;;
2522;SDS011;1272;53.332;9.860;2022-08-21T06:10:09;3.60;;;3.40;;
2522;SDS011;1272;53.332;9.860;2022-08-21T06:12:35;3.70;;;3.40;;
2522;SDS011;1272;53.332;9.860;2022-08-21T06:15:01;3.77;;;2.70;;
2522;SDS011;1272;53.332;9.860;2022-08-21T06:17:26;3.60;;;2.70;;
2522;SDS011;1272;53.332;9.860;2022-08-21T06:19:53;5.10;;;3.07;;
2522;SDS011;1272;53.332;9.860;2022-08-21T06:22:19;4.20;;;2.97;;
2522;SDS011;1272;53.332;9.860;2022-08-21T06:24:45;3.80;;;2.60;;
2522;SDS011;1272;53.332;9.860;2022-08-21T06:27:11;4.90;;;2.70;;
2522;SDS011;1272;53.332;9.860;2022-08-21T06:29:37;2.40;;;2.30;;
2522;SDS011;1272;53.332;9.860;2022-08-21T06:32:03;2.70;;;2.40;;
2522;SDS011;1272;53.332;9.860;2022-08-21T06:34:35;1.97;;;1.87;;
2522;SDS011;1272;53.332;9.860;2022-08-21T06:37:02;2.30;;;2.20;;
2522;SDS011;1272;53.332;9.860;2022-08-21T06:39:29;3.57;;;3.00;;
2522;SDS011;1272;53.332;9.860;2022-08-21T06:41:54;3.07;;;2.53;;
2522;SDS011;1272;53.332;9.860;2022-08-21T06:44:20;2.17;;;2.07;;
2522;SDS011;1272;53.332;9.860;2022-08-21T06:46:46;2.40;;;2.30;;
2522;SDS011;1272;53.332;9.860;2022-08-21T06:49:12;2.70;;;2.50;;
2522;SDS011;1272;53.332;9.860;2022-08-21T06:51:38;2.37;;;2.27;;
2522;SDS011;1272;53.332;9.860;2022-08-21T06:54:05;2.87;;;2.67;;
2522;SDS011;1272;53.332;9.860;2022-08-21T06:56:31;2.77;;;2.57;;
2522;SDS011;1272;53.332;9.860;2022-08-21T06:58:58;3.33;;;2.40;;
2522;SDS011;1272;53.332;9.860;2022-08-21T07:01:24;2.70;;;2.50;;
2522;SDS011;1272;53.332;9.860;2022-08-21T07:03:51;2.43;;;2.07;;
2522;SDS011;1272;53.332;9.860;2022-08-21T07:06:17;3.27;;;2.20;;
2522;SDS011;1272;53.332;9.860;2022-08-21T07:08:43;5.60;;;2.37;;
2522;SDS011;1272;53.332;9.860;2022-08-21T07:11:17;6.70;;;3.70;;
2522;SDS011;1272;53.332;9.860;2022-08-21T07:13:44;3.80;;;2.10;;
2522;SDS011;1272;53.332;9.860;2022-08-21T07:16:10;2.43;;;1.97;;
2522;SDS011;1272;53.332;9.860;2022-08-21T07:18:36;3.50;;;1.63;;
2522;SDS011;1272;53.332;9.860;2022-08-21T07:21:03;3.93;;;1.90;;
2522;SDS011;1272;53.332;9.860;2022-08-21T07:23:31;2.57;;;1.90;;
2522;SDS011;1272;53.332;9.860;2022-08-21T07:26:00;2.20;;;2.00;;
2522;SDS011;1272;53.332;9.860;2022-08-21T07:28:26;3.17;;;1.90;;
2522;SDS011;1272;53.332;9.860;2022-08-21T07:30:53;2.47;;;1.60;;
2522;SDS011;1272;53.332;9.860;2022-08-21T07:33:21;2.90;;;2.00;;
2522;SDS011;1272;53.332;9.860;2022-08-21T07:35:48;2.03;;;1.60;;
2522;SDS011;1272;53.332;9.860;2022-08-21T07:38:13;4.83;;;2.13;;
2522;SDS011;1272;53.332;9.860;2022-08-21T07:40:39;3.37;;;1.57;;
2522;SDS011;1272;53.332;9.860;2022-08-21T07:43:05;6.13;;;2.10;;
2522;SDS011;1272;53.332;9.860;2022-08-21T07:45:31;2.60;;;2.13;;
2522;SDS011;1272;53.332;9.860;2022-08-21T07:47:57;4.40;;;2.00;;
2522;SDS011;1272;53.332;9.860;2022-08-21T07:50:23;6.30;;;1.97;;
2522;SDS011;1272;53.332;9.860;2022-08-21T07:52:49;4.93;;;2.10;;
2522;SDS011;1272;53.332;9.860;2022-08-21T07:55:16;2.63;;;2.10;;
2522;SDS011;1272;53.332;9.860;2022-08-21T07:57:44;3.57;;;2.17;;
2522;SDS011;1272;53.332;9.860;2022-08-21T08:00:12;7.90;;;2.30;;
2522;SDS011;1272;53.332;9.860;2022-08-21T08:02:40;2.93;;;1.80;;
2522;SDS011;1272;53.332;9.860;2022-08-21T08:05:10;3.63;;;2.37;;
2522;SDS011;1272;53.332;9.860;2022-08-21T08:07:36;7.20;;;2.73;;
2522;SDS011;1272;53.332;9.860;2022-08-21T08:10:03;5.03;;;1.80;;
2522;SDS011;1272;53.332;9.860;2022-08-21T08:12:32;3.83;;;2.20;;
2522;SDS011;1272;53.332;9.860;2022-08-21T08:15:02;4.43;;;2.17;;
2522;SDS011;1272;53.332;9.860;2022-08-21T08:17:30;3.83;;;2.10;;
2522;SDS011;1272;53.332;9.860;2022-08-21T08:19:57;4.37;;;2.40;;
2522;SDS011;1272;53.332;9.860;2022-08-21T08:22:24;4.17;;;2.93;;
2522;SDS011;1272;53.332;9.860;2022-08-21T08:24:50;6.90;;;2.37;;
2522;SDS011;1272;53.332;9.860;2022-08-21T08:27:17;3.60;;;2.40;;
2522;SDS011;1272;53.332;9.860;2022-08-21T08:29:46;6.00;;;2.93;;
2522;SDS011;1272;53.332;9.860;2022-08-21T08:32:12;5.40;;;2.60;;
2522;SDS011;1272;53.332;9.860;2022-08-21T08:34:39;4.60;;;2.60;;
2522;SDS011;1272;53.332;9.860;2022-08-21T08:37:05;9.43;;;2.83;;
2522;SDS011;1272;53.332;9.860;2022-08-21T08:39:32;4.43;;;2.63;;
2522;SDS011;1272;53.332;9.860;2022-08-21T08:41:59;5.13;;;2.40;;
2522;SDS011;1272;53.332;9.860;2022-08-21T08:44:32;6.20;;;3.63;;
2522;SDS011;1272;53.332;9.860;2022-08-21T08:46:58;6.97;;;2.77;;
2522;SDS011;1272;53.332;9.860;2022-08-21T08:49:58;3.57;;;2.93;;
2522;SDS011;1272;53.332;9.860;2022-08-21T08:52:29;6.83;;;3.57;;
2522;SDS011;1272;53.332;9.860;2022-08-21T08:55:06;3.63;;;2.60;;
2522;SDS011;1272;53.332;9.860;2022-08-21T08:57:37;6.60;;;3.17;;
2522;SDS011;1272;53.332;9.860;2022-08-21T09:00:09;5.50;;;3.10;;
2522;SDS011;1272;53.332;9.860;2022-08-21T09:02:40;4.00;;;2.50;;
2522;SDS011;1272;53.332;9.860;2022-08-21T09:05:09;5.07;;;3.60;;
2522;SDS011;1272;53.332;9.860;2022-08-21T09:15:59;5.10;;;3.00;;
2522;SDS011;1272;53.332;9.860;2022-08-21T09:21:23;4.40;;;3.07;;
2522;SDS011;1272;53.332;9.860;2022-08-21T09:24:04;5.10;;;3.97;;
2522;SDS011;1272;53.332;9.860;2022-08-21T09:29:35;6.67;;;2.87;;
2522;SDS011;1272;53.332;9.860;2022-08-21T09:32:26;8.40;;;2.80;;
2522;SDS011;1272;53.332;9.860;2022-08-21T09:34:59;4.27;;;2.67;;
2522;SDS011;1272;53.332;9.860;2022-08-21T09:37:55;2.90;;;2.40;;
2522;SDS011;1272;53.332;9.860;2022-08-21T09:40:29;4.70;;;2.70;;
2522;SDS011;1272;53.332;9.860;2022-08-21T09:45:39;4.93;;;2.10;;
2522;SDS011;1272;53.332;9.860;2022-08-21T09:48:23;3.83;;;2.33;;
2522;SDS011;1272;53.332;9.860;2022-08-21T09:50:50;3.20;;;2.20;;
2522;SDS011;1272;53.332;9.860;2022-08-21T09:53:27;5.13;;;2.43;;
2522;SDS011;1272;53.332;9.860;2022-08-21T09:56:02;2.13;;;2.03;;
2522;SDS011;1272;53.332;9.860;2022-08-21T09:58:49;6.30;;;2.30;;
2522;SDS011;1272;53.332;9.860;2022-08-21T10:01:23;5.17;;;2.13;;
2522;SDS011;1272;53.332;9.860;2022-08-21T10:04:09;5.27;;;2.53;;
2522;SDS011;1272;53.332;9.860;2022-08-21T10:06:35;2.60;;;2.40;;
2522;SDS011;1272;53.332;9.860;2022-08-21T10:09:09;5.50;;;2.30;;
2522;SDS011;1272;53.332;9.860;2022-08-21T10:11:36;6.83;;;2.30;;
2522;SDS011;1272;53.332;9.860;2022-08-21T10:14:13;2.90;;;1.90;;
2522;SDS011;1272;53.332;9.860;2022-08-21T10:22:46;5.53;;;1.83;;
2522;SDS011;1272;53.332;9.860;2022-08-21T10:25:35;2.37;;;2.10;;
2522;SDS011;1272;53.332;9.860;2022-08-21T10:30:39;4.80;;;2.70;;
2522;SDS011;1272;53.332;9.860;2022-08-21T10:33:28;3.67;;;2.30;;
2522;SDS011;1272;53.332;9.860;2022-08-21T10:36:00;3.20;;;1.97;;
2522;SDS011;1272;53.332;9.860;2022-08-21T10:41:53;4.60;;;2.00;;
2522;SDS011;1272;53.332;9.860;2022-08-21T10:53:05;3.50;;;1.80;;
2522;SDS011;1272;53.332;9.860;2022-08-21T10:55:32;3.83;;;2.20;;
2522;SDS011;1272;53.332;9.860;2022-08-21T10:58:12;3.17;;;1.83;;
2522;SDS011;1272;53.332;9.860;2022-08-21T11:00:45;1.73;;;1.60;;
2522;SDS011;1272;53.332;9.860;2022-08-21T11:06:11;3.40;;;2.00;;
2522;SDS011;1272;53.332;9.860;2022-08-21T11:08:43;3.07;;;2.20;;
2522;SDS011;1272;53.332;9.860;2022-08-21T11:11:22;2.00;;;1.80;;
2522;SDS011;1272;53.332;9.860;2022-08-21T11:13:57;4.30;;;1.67;;
2522;SDS011;1272;53.332;9.860;2022-08-21T11:16:42;2.27;;;1.60;;
2522;SDS011;1272;53.332;9.860;2022-08-21T11:22:10;3.90;;;1.63;;
2522;SDS011;1272;53.332;9.860;2022-08-21T11:27:29;3.63;;;1.80;;
2522;SDS011;1272;53.332;9.860;2022-08-21T11:30:02;3.07;;;1.77;;
2522;SDS011;1272;53.332;9.860;2022-08-21T11:38:11;1.77;;;1.60;;
2522;SDS011;1272;53.332;9.860;2022-08-21T11:43:39;2.10;;;1.47;;
2522;SDS011;1272;53.332;9.860;2022-08-21T11:51:50;2.90;;;1.70;;
2522;SDS011;1272;53.332;9.860;2022-08-21T11:57:19;2.00;;;1.47;;
2522;SDS011;1272;53.332;9.860;2022-08-21T11:59:56;2.20;;;1.77;;
2522;SDS011;1272;53.332;9.860;2022-08-21T12:02:23;1.60;;;1.50;;
2522;SDS011;1272;53.332;9.860;2022-08-21T12:04:55;2.77;;;1.67;;
2522;SDS011;1272;53.332;9.860;2022-08-21T12:07:30;1.70;;;1.50;;
2522;SDS011;1272;53.332;9.860;2022-08-21T12:10:02;2.40;;;1.03;;
2522;SDS011;1272;53.332;9.860;2022-08-21T12:12:32;4.70;;;1.20;;
2522;SDS011;1272;53.332;9.860;2022-08-21T12:24:00;2.80;;;1.60;;
2522;SDS011;1272;53.332;9.860;2022-08-21T12:26:34;1.80;;;1.70;;
2522;SDS011;1272;53.332;9.860;2022-08-21T12:29:14;3.50;;;1.63;;
2522;SDS011;1272;53.332;9.860;2022-08-21T12:31:47;2.27;;;1.77;;
2522;SDS011;1272;53.332;9.860;2022-08-21T12:34:18;3.07;;;1.80;;
2522;SDS011;1272;53.332;9.860;2022-08-21T12:36:54;3.70;;;1.97;;
2522;SDS011;1272;53.332;9.860;2022-08-21T12:39:26;1.60;;;1.47;;
2522;SDS011;1272;53.332;9.860;2022-08-21T12:42:00;2.20;;;1.40;;
2522;SDS011;1272;53.332;9.860;2022-08-21T12:44:43;3.37;;;2.00;;
2522;SDS011;1272;53.332;9.860;2022-08-21T12:47:17;2.00;;;1.27;;
2522;SDS011;1272;53.332;9.860;2022-08-21T12:50:03;2.27;;;1.57;;
2522;SDS011;1272;53.332;9.860;2022-08-21T12:52:34;1.93;;;1.80;;
2522;SDS011;1272;53.332;9.860;2022-08-21T12:55:14;4.93;;;1.90;;
2522;SDS011;1272;53.332;9.860;2022-08-21T12:57:41;2.10;;;1.60;;
2522;SDS011;1272;53.332;9.860;2022-08-21T13:00:09;2.20;;;1.77;;
2522;SDS011;1272;53.332;9.860;2022-08-21T13:02:38;1.93;;;1.60;;
2522;SDS011;1272;53.332;9.860;2022-08-21T13:05:11;2.40;;;1.87;;
2522;SDS011;1272;53.332;9.860;2022-08-21T13:07:43;2.80;;;2.30;;
2522;SDS011;1272;53.332;9.860;2022-08-21T13:10:18;1.70;;;1.60;;
2522;SDS011;1272;53.332;9.860;2022-08-21T13:12:49;2.93;;;1.53;;
2522;SDS011;1272;53.332;9.860;2022-08-21T13:15:21;3.80;;;1.70;;
2522;SDS011;1272;53.332;9.860;2022-08-21T13:17:50;3.17;;;1.70;;
2522;SDS011;1272;53.332;9.860;2022-08-21T13:20:20;2.80;;;1.60;;
2522;SDS011;1272;53.332;9.860;2022-08-21T13:22:52;1.67;;;1.20;;
2522;SDS011;1272;53.332;9.860;2022-08-21T13:25:19;1.60;;;1.30;;
2522;SDS011;1272;53.332;9.860;2022-08-21T13:27:56;3.23;;;1.80;;
2522;SDS011;1272;53.332;9.860;2022-08-21T13:30:25;2.10;;;1.30;;
2522;SDS011;1272;53.332;9.860;2022-08-21T13:32:52;2.23;;;1.63;;
2522;SDS011;1272;53.332;9.860;2022-08-21T13:35:23;1.97;;;1.60;;
2522;SDS011;1272;53.332;9.860;2022-08-21T13:37:53;1.93;;;1.40;;
2522;SDS011;1272;53.332;9.860;2022-08-21T13:40:23;4.13;;;1.70;;
2522;SDS011;1272;53.332;9.860;2022-08-21T13:43:31;3.73;;;1.60;;
2522;SDS011;1272;53.332;9.860;2022-08-21T13:45:58;1.77;;;1.67;;
2522;SDS011;1272;53.332;9.860;2022-08-21T13:48:27;3.03;;;1.43;;
2522;SDS011;1272;53.332;9.860;2022-08-21T13:50:55;2.13;;;1.90;;
2522;SDS011;1272;53.332;9.860;2022-08-21T13:53:30;5.47;;;1.90;;
2522;SDS011;1272;53.332;9.860;2022-08-21T13:56:21;1.50;;;1.40;;
2522;SDS011;1272;53.332;9.860;2022-08-21T13:58:50;2.80;;;1.53;;
2522;SDS011;1272;53.332;9.860;2022-08-21T14:01:18;8.20;;;1.87;;
2522;SDS011;1272;53.332;9.860;2022-08-21T14:03:47;8.10;;;1.80;;
2522;SDS011;1272;53.332;9.860;2022-08-21T14:06:19;1.90;;;1.20;;
2522;SDS011;1272;53.332;9.860;2022-08-21T14:11:24;1.63;;;1.53;;
2522;SDS011;1272;53.332;9.860;2022-08-21T14:13:56;2.20;;;1.30;;
2522;SDS011;1272;53.332;9.860;2022-08-21T14:16:28;1.60;;;1.40;;
2522;SDS011;1272;53.332;9.860;2022-08-21T14:19:15;2.67;;;1.60;;
2522;SDS011;1272;53.332;9.860;2022-08-21T14:21:42;1.70;;;1.60;;
2522;SDS011;1272;53.332;9.860;2022-08-21T14:24:10;3.20;;;1.30;;
2522;SDS011;1272;53.332;9.860;2022-08-21T14:27:11;1.83;;;1.30;;
2522;SDS011;1272;53.332;9.860;2022-08-21T14:29:36;2.00;;;1.10;;
2522;SDS011;1272;53.332;9.860;2022-08-21T14:32:12;5.33;;;1.80;;
2522;SDS011;1272;53.332;9.860;2022-08-21T14:34:45;1.77;;;1.50;;
2522;SDS011;1272;53.332;9.860;2022-08-21T14:37:10;1.43;;;1.33;;
2522;SDS011;1272;53.332;9.860;2022-08-21T14:39:36;2.50;;;1.57;;
2522;SDS011;1272;53.332;9.860;2022-08-21T14:42:02;2.80;;;1.50;;
2522;SDS011;1272;53.332;9.860;2022-08-21T14:44:28;3.10;;;1.77;;
2522;SDS011;1272;53.332;9.860;2022-08-21T14:46:54;2.40;;;1.50;;
2522;SDS011;1272;53.332;9.860;2022-08-21T14:49:20;1.40;;;1.30;;
2522;SDS011;1272;53.332;9.860;2022-08-21T14:51:46;1.67;;;1.57;;
2522;SDS011;1272;53.332;9.860;2022-08-21T14:54:12;2.73;;;1.30;;
2522;SDS011;1272;53.332;9.860;2022-08-21T14:56:38;1.57;;;1.47;;
2522;SDS011;1272;53.332;9.860;2022-08-21T14:59:05;1.30;;;1.20;;
2522;SDS011;1272;53.332;9.860;2022-08-21T15:01:36;1.97;;;1.40;;
2522;SDS011;1272;53.332;9.860;2022-08-21T15:04:03;7.00;;;2.13;;
2522;SDS011;1272;53.332;9.860;2022-08-21T15:06:29;2.20;;;1.33;;
2522;SDS011;1272;53.332;9.860;2022-08-21T15:08:55;2.37;;;1.40;;
2522;SDS011;1272;53.332;9.860;2022-08-21T15:11:21;1.70;;;1.47;;
2522;SDS011;1272;53.332;9.860;2022-08-21T15:13:51;2.57;;;1.43;;
2522;SDS011;1272;53.332;9.860;2022-08-21T15:16:21;2.50;;;1.27;;
2522;SDS011;1272;53.332;9.860;2022-08-21T15:18:47;1.80;;;1.53;;
2522;SDS011;1272;53.332;9.860;2022-08-21T15:21:13;2.03;;;1.57;;
2522;SDS011;1272;53.332;9.860;2022-08-21T15:23:39;1.93;;;1.83;;
2522;SDS011;1272;53.332;9.860;2022-08-21T15:26:05;2.37;;;1.43;;
2522;SDS011;1272;53.332;9.860;2022-08-21T15:28:33;1.40;;;1.30;;
2522;SDS011;1272;53.332;9.860;2022-08-21T15:31:00;1.57;;;1.47;;
2522;SDS011;1272;53.332;9.860;2022-08-21T15:33:26;1.60;;;1.30;;
2522;SDS011;1272;53.332;9.860;2022-08-21T15:35:52;2.30;;;1.50;;
2522;SDS011;1272;53.332;9.860;2022-08-21T15:38:17;2.80;;;1.73;;
2522;SDS011;1272;53.332;9.860;2022-08-21T15:40:43;3.70;;;1.87;;
2522;SDS011;1272;53.332;9.860;2022-08-21T15:43:33;2.50;;;1.70;;
2522;SDS011;1272;53.332;9.860;2022-08-21T15:46:10;2.60;;;1.50;;
2522;SDS011;1272;53.332;9.860;2022-08-21T15:48:38;2.60;;;1.53;;
2522;SDS011;1272;53.332;9.860;2022-08-21T15:51:04;2.77;;;1.70;;
2522;SDS011;1272;53.332;9.860;2022-08-21T15:53:29;1.63;;;1.53;;
2522;SDS011;1272;53.332;9.860;2022-08-21T15:56:00;2.73;;;1.30;;
2522;SDS011;1272;53.332;9.860;2022-08-21T15:58:26;2.30;;;1.80;;
2522;SDS011;1272;53.332;9.860;2022-08-21T16:00:52;1.77;;;1.40;;
2522;SDS011;1272;53.332;9.860;2022-08-21T16:03:18;1.90;;;1.43;;
2522;SDS011;1272;53.332;9.860;2022-08-21T16:05:46;1.50;;;1.40;;
2522;SDS011;1272;53.332;9.860;2022-08-21T16:08:14;1.40;;;1.30;;
2522;SDS011;1272;53.332;9.860;2022-08-21T16:10:40;2.60;;;1.23;;
2522;SDS011;1272;53.332;9.860;2022-08-21T16:13:11;3.13;;;1.70;;
2522;SDS011;1272;53.332;9.860;2022-08-21T16:15:43;2.30;;;1.20;;
2522;SDS011;1272;53.332;9.860;2022-08-21T16:18:09;3.07;;;1.47;;
2522;SDS011;1272;53.332;9.860;2022-08-21T16:20:35;1.73;;;1.40;;
2522;SDS011;1272;53.332;9.860;2022-08-21T16:23:01;2.10;;;1.30;;
2522;SDS011;1272;53.332;9.860;2022-08-21T16:25:26;1.33;;;1.23;;
2522;SDS011;1272;53.332;9.860;2022-08-21T16:27:54;1.37;;;1.27;;
2522;SDS011;1272;53.332;9.860;2022-08-21T16:30:23;1.60;;;1.50;;
2522;SDS011;1272;53.332;9.860;2022-08-21T16:32:49;1.67;;;1.10;;
2522;SDS011;1272;53.332;9.860;2022-08-21T16:35:16;1.67;;;1.17;;
2522;SDS011;1272;53.332;9.860;2022-08-21T16:37:44;1.67;;;1.27;;
2522;SDS011;1272;53.332;9.860;2022-08-21T16:40:10;1.73;;;1.40;;
2522;SDS011;1272;53.332;9.860;2022-08-21T16:42:36;2.70;;;1.70;;